Home > Products > Valid Products > MTR

000
SAUS44 KMRX 162356 COR
MTRGDP
METAR KGDP 162351Z AUTO 25025G33KT 9SM CLR 23/M16 A2984 RMK AO2 PK
WND 24033/2342 SLP039 T02331161 10261 20211 56011





000
SAUS44 KMRX 161756 COR
MTRGDP
METAR KGDP 161751Z AUTO 23013G22KT 9SM CLR 22/M08 A2996 RMK AO2 PK
WND 24027/1736 SLP082 T02171083 10217 20094 58001





000
SAUS44 KMRX 151156 COR
MTRGDP
METAR KGDP 151151Z AUTO 06017KT 10SM CLR M02/M10 A3024 RMK AO2 PK
WND 06026/1122 SLP243 T10171100 10017 21017 55012





000
SAUS44 KMRX 142356 COR
MTRGDP
METAR KGDP 142351Z AUTO 08026KT 9SM CLR 06/M09 A3022 RMK AO2 PK WND
08033/2321 SLP231 T00611094 10083 20039 55004





000
SAUS44 KMRX 141856 COR
MTRGDP
METAR KGDP 141851Z AUTO 07024G29KT 9SM CLR 06/M07 A3022 RMK AO2 PK
WND 07029/1851 SLP196 T00561072





000
SAUS44 KMRX 141756 COR
MTRGDP
METAR KGDP 141751Z AUTO 05023G29KT 9SM CLR 04/M07 A3023 RMK AO2 PK
WND 08034/1730 SLP204 T00391067 10044 21011 51027





000
SAUS44 KMRX 141156 COR
MTRGDP
METAR KGDP 141151Z AUTO 07038KT 8SM CLR M01/M04 A3001 RMK AO2 PK WND
07041/1106 SLP124 T10061039 10167 21006 53025





000
SAUS44 KMRX 141056
MTRGDP
METAR KGDP 141051Z AUTO 08032KT 7SM CLR 01/M04 A2997 RMK AO2 PK WND
07042/0954 SLP107 T00061039





    US Dept of Commerce
    National Oceanic and Atmospheric Administration
    National Weather Service
    1325 East West Highway
    Silver Spring, MD 20910
    Page Author: NWS Internet Services Team
Disclaimer
Information Quality
Credits
Glossary
Privacy Policy
Freedom of Information Act (FOIA)
About Us
Career Opportunities